Aviation Digital Data Service (ADDS)

Output produced by METARs form (0411 UTC 24 May 2017)
found at http://aviationweather.gov/adds/metars/
 
KLFT 240353Z AUTO 31005KT 10SM BKN036 BKN049 23/19 A2980 RMK AO2 SLP090 T02330189